Time;durP1;ratioP1;P1;durP2;ratioP2;P2;SDS_P1;SDS_P2;PMS_P1;PMS_P2;Temp;Humidity;BMP_temperature;BMP_pressure;BME280_temperature;BME280_humidity;BME280_pressure;Samples;Min_cycle;Max_cycle;Signal;HPM_P1;HPM_P2
2022/07/30 00:01:19;;;;;;;;;;;;;;;18.33;63.50;101734.38;5032281;28;19963;-60
2022/07/30 00:03:44;;;;;;;;;;;;;;;18.32;63.68;101737.25;5031627;28;19979;-60
2022/07/30 00:06:09;;;;;;;;;;;;;;;18.30;63.90;101736.59;5031294;28;19925;-60
2022/07/30 00:08:34;;;;;;;;;;;;;;;18.25;64.50;101726.41;5032857;28;19924;-60
2022/07/30 00:11:00;;;;;;;;;;;;;;;18.19;64.38;101729.88;5021024;28;19980;-60
2022/07/30 00:13:25;;;;;;;;;;;;;;;18.15;64.58;101724.91;5032836;28;19948;-60
2022/07/30 00:15:50;;;;;;;;;;;;;;;18.14;64.12;101719.72;5026849;28;19972;-60
2022/07/30 00:18:15;;;;;;;;;;;;;;;18.17;64.27;101718.50;5021610;28;20533;-60
2022/07/30 00:20:40;;;;;;;;;;;;;;;18.18;64.22;101717.47;5032409;28;19917;-60
2022/07/30 00:23:06;;;;;;;;;;;;;;;18.18;64.05;101714.78;5032832;28;19917;-60
2022/07/30 00:25:31;;;;;;;;;;;;;;;18.18;64.33;101714.78;5028729;28;19972;-60
2022/07/30 00:27:56;;;;;;;;;;;;;;;18.17;64.44;101721.19;5032053;28;20365;-60
2022/07/30 00:30:21;;;;;;;;;;;;;;;18.18;64.47;101720.16;5031037;28;19921;-60
2022/07/30 00:32:47;;;;;;;;;;;;;;;18.15;64.97;101722.22;5032411;28;19917;-60
2022/07/30 00:35:12;;;;;;;;;;;;;;;18.10;65.47;101724.63;5031354;28;19921;-60
2022/07/30 00:37:37;;;;;;;;;;;;;;;18.02;65.71;101732.78;5017714;28;19922;-60
2022/07/30 00:40:03;;;;;;;;;;;;;;;17.96;65.66;101730.84;5021671;28;19921;-60
2022/07/30 00:42:43;;;;;;;;;;;;;;;17.94;66.07;101736.41;5032911;28;20422;-60
2022/07/30 00:45:09;;;;;;;;;;;;;;;17.87;66.62;101730.13;5017378;28;20440;-60
2022/07/30 00:47:34;;;;;;;;;;;;;;;17.79;66.47;101725.72;5031038;28;20000;-60
2022/07/30 00:50:03;;;;;;;;;;;;;;;17.76;66.43;101728.75;5019925;28;20368;-60
2022/07/30 00:52:28;;;;;;;;;;;;;;;17.72;66.83;101727.47;5016519;28;19967;-60
2022/07/30 00:54:53;;;;;;;;;;;;;;;17.68;67.20;101731.53;5030980;28;19925;-60
2022/07/30 00:57:18;;;;;;;;;;;;;;;17.64;67.37;101727.56;5032472;28;20004;-60
2022/07/30 00:59:43;;;;;;;;;;;;;;;17.61;66.89;101726.94;5031489;28;20349;-60
2022/07/30 01:02:09;;;;;;;;;;;;;;;17.63;67.46;101723.22;5013667;28;19953;-60
2022/07/30 01:04:34;;;;;;;;;;;;;;;17.60;67.23;101727.13;5026953;28;20675;-60
2022/07/30 01:06:59;;;;;;;;;;;;;;;17.59;67.63;101723.63;5032256;28;19921;-60
2022/07/30 01:09:24;;;;;;;;;;;;;;;17.56;67.45;101713.25;5032826;28;20288;-60
2022/07/30 01:11:49;;;;;;;;;;;;;;;17.54;69.08;101704.56;5021184;28;20325;-60
2022/07/30 01:14:15;;;;;;;;;;;;;;;17.51;67.28;101710.28;5028794;28;19921;-60
2022/07/30 01:16:41;;;;;;;;;;;;;;;17.53;67.54;101712.78;5027427;28;19921;-60
2022/07/30 01:21:59;;;;;;;;;;;;;;;17.51;67.99;101715.66;5018505;28;19964;-60
2022/07/30 01:24:29;;;;;;;;;;;;;;;17.49;68.16;101712.34;5024799;28;19917;-60
2022/07/30 01:26:54;;;;;;;;;;;;;;;17.45;67.89;101711.88;5035920;28;19928;-60
2022/07/30 01:29:21;;;;;;;;;;;;;;;17.44;68.24;101710.22;5035351;28;19956;-60
2022/07/30 01:31:47;;;;;;;;;;;;;;;17.42;68.62;101712.25;5035109;28;20004;-60
2022/07/30 01:34:13;;;;;;;;;;;;;;;17.40;68.69;101713.44;5032522;28;19925;-60
2022/07/30 01:36:42;;;;;;;;;;;;;;;17.34;69.24;101709.66;5031734;28;20404;-60
2022/07/30 01:39:07;;;;;;;;;;;;;;;17.28;69.34;101711.25;5027412;28;20585;-60
2022/07/30 01:41:33;;;;;;;;;;;;;;;17.24;69.39;101709.94;5027177;28;20009;-60
2022/07/30 01:44:00;;;;;;;;;;;;;;;17.21;69.42;101718.34;5032511;28;19996;-60
2022/07/30 01:46:26;;;;;;;;;;;;;;;17.16;69.68;101713.53;5019734;28;19932;-60
2022/07/30 01:48:54;;;;;;;;;;;;;;;17.13;69.72;101721.13;5027137;28;19921;-60
2022/07/30 01:51:20;;;;;;;;;;;;;;;17.08;70.09;101716.31;5028228;28;20041;-60
2022/07/30 01:53:46;;;;;;;;;;;;;;;17.03;70.29;101719.53;5029808;28;20036;-60
2022/07/30 01:56:13;;;;;;;;;;;;;;;16.98;71.01;101724.59;5033769;28;20411;-60
2022/07/30 01:58:40;;;;;;;;;;;;;;;16.96;70.72;101718.56;5031214;28;19921;-60
2022/07/30 02:01:06;;;;;;;;;;;;;;;16.94;71.17;101716.06;5031393;28;20272;-60
2022/07/30 02:03:31;;;;;;;;;;;;;;;16.91;70.65;101720.97;5032476;28;19944;-60
2022/07/30 02:05:58;;;;;;;;;;;;;;;16.88;71.11;101713.31;5031323;28;19928;-60
2022/07/30 02:08:33;;;;;;;;;;;;;;;16.88;71.23;101718.66;5033911;28;19917;-60
2022/07/30 02:11:06;;;;;;;;;;;;;;;16.84;70.75;101717.34;5028705;28;20015;-59
2022/07/30 02:13:32;;;;;;;;;;;;;;;16.85;70.84;101724.38;5019030;28;19928;-60
2022/07/30 02:16:04;;;;;;;;;;;;;;;16.83;70.48;101723.72;5027183;28;19940;-60
2022/07/30 02:18:31;;;;;;;;;;;;;;;16.82;70.96;101728.25;5034277;28;19925;-60
2022/07/30 02:21:01;;;;;;;;;;;;;;;16.79;71.11;101724.06;5028058;28;19918;-60
2022/07/30 02:23:28;;;;;;;;;;;;;;;16.77;71.15;101718.06;5016890;28;19929;-60
2022/07/30 02:25:55;;;;;;;;;;;;;;;16.77;71.27;101726.09;5030891;28;19991;-60
2022/07/30 02:28:22;;;;;;;;;;;;;;;16.74;71.39;101721.13;5029057;28;20001;-59
2022/07/30 02:30:49;;;;;;;;;;;;;;;16.73;71.26;101719.44;5029847;28;19928;-59
2022/07/30 02:33:16;;;;;;;;;;;;;;;16.75;71.57;101717.44;5031648;28;19925;-60
2022/07/30 02:35:41;;;;;;;;;;;;;;;16.73;71.32;101722.13;5030919;28;19932;-60
2022/07/30 02:38:07;;;;;;;;;;;;;;;16.73;70.96;101732.03;5034707;28;19916;-60
2022/07/30 02:40:33;;;;;;;;;;;;;;;16.70;71.05;101719.81;5033092;28;19929;-60
2022/07/30 02:42:59;;;;;;;;;;;;;;;16.69;71.28;101731.53;5025385;28;19975;-60
2022/07/30 02:45:25;;;;;;;;;;;;;;;16.67;71.24;101728.19;5032191;28;19921;-60
2022/07/30 02:47:53;;;;;;;;;;;;;;;16.65;71.64;101727.56;5030306;28;20000;-60
2022/07/30 02:50:19;;;;;;;;;;;;;;;16.63;71.23;101724.25;5026662;28;19928;-60
2022/07/30 02:52:45;;;;;;;;;;;;;;;16.62;71.54;101728.75;5031563;28;19921;-60
2022/07/30 02:55:11;;;;;;;;;;;;;;;16.60;71.59;101729.94;5032953;28;20257;-60
2022/07/30 02:57:38;;;;;;;;;;;;;;;16.54;71.62;101726.97;5034640;28;19924;-60
2022/07/30 03:00:04;;;;;;;;;;;;;;;16.50;71.54;101733.72;5032717;28;19928;-60
2022/07/30 03:02:31;;;;;;;;;;;;;;;16.47;72.29;101736.72;5031162;28;19925;-62
2022/07/30 03:04:58;;;;;;;;;;;;;;;16.43;72.56;101740.75;5030331;28;19922;-60
2022/07/30 03:07:24;;;;;;;;;;;;;;;16.35;72.82;101738.16;5033343;28;19968;-60
2022/07/30 03:09:50;;;;;;;;;;;;;;;16.31;72.23;101742.19;5033562;28;19972;-60
2022/07/30 03:12:15;;;;;;;;;;;;;;;16.28;72.78;101740.69;5023892;28;19939;-59
2022/07/30 03:14:40;;;;;;;;;;;;;;;16.26;73.00;101746.25;5030733;28;19917;-60
2022/07/30 03:17:07;;;;;;;;;;;;;;;16.22;73.10;101739.56;5033337;28;20365;-60
2022/07/30 03:19:35;;;;;;;;;;;;;;;16.20;73.12;101744.28;5022165;28;19921;-60
2022/07/30 03:22:01;;;;;;;;;;;;;;;16.17;72.53;101735.78;5018876;28;19921;-60
2022/07/30 03:24:27;;;;;;;;;;;;;;;16.15;74.75;101743.97;5030299;28;19921;-60
2022/07/30 03:26:54;;;;;;;;;;;;;;;16.08;73.62;101733.13;5032922;28;19932;-60
2022/07/30 03:29:21;;;;;;;;;;;;;;;16.06;73.15;101735.16;5030815;28;20303;-60
2022/07/30 03:31:46;;;;;;;;;;;;;;;16.08;73.00;101732.31;5033313;28;20020;-60
2022/07/30 03:34:12;;;;;;;;;;;;;;;16.07;73.73;101735.97;5032023;28;20423;-59
2022/07/30 03:36:38;;;;;;;;;;;;;;;16.03;73.48;101737.34;5033317;28;19917;-60
2022/07/30 03:39:05;;;;;;;;;;;;;;;16.02;73.47;101733.03;5029070;28;19921;-60
2022/07/30 03:41:31;;;;;;;;;;;;;;;16.00;73.60;101739.34;5032068;28;19921;-60
2022/07/30 03:43:57;;;;;;;;;;;;;;;16.02;73.80;101735.69;5018731;28;19944;-60
2022/07/30 03:46:22;;;;;;;;;;;;;;;15.99;73.79;101739.56;5031954;28;19921;-60
2022/07/30 03:48:48;;;;;;;;;;;;;;;15.97;73.64;101746.91;5030065;28;19929;-60
2022/07/30 03:51:15;;;;;;;;;;;;;;;15.96;73.43;101743.41;5023117;28;19928;-61
2022/07/30 03:53:41;;;;;;;;;;;;;;;15.92;74.07;101750.13;5020744;28;20380;-61
2022/07/30 03:56:06;;;;;;;;;;;;;;;15.85;73.67;101755.28;5024164;28;19921;-61
2022/07/30 03:58:32;;;;;;;;;;;;;;;15.79;73.76;101757.84;5030451;28;20002;-61
2022/07/30 04:00:57;;;;;;;;;;;;;;;15.71;74.38;101759.53;5031123;28;19921;-61
2022/07/30 04:03:26;;;;;;;;;;;;;;;15.66;74.11;101761.06;5032916;28;19917;-61
2022/07/30 04:05:52;;;;;;;;;;;;;;;15.59;76.95;101756.41;5032365;28;20396;-61
2022/07/30 04:08:17;;;;;;;;;;;;;;;15.45;76.09;101755.25;5033198;28;19948;-61
2022/07/30 04:10:42;;;;;;;;;;;;;;;15.38;75.06;101756.97;5023785;28;19929;-61
2022/07/30 04:13:07;;;;;;;;;;;;;;;15.39;74.90;101760.47;5032554;28;20012;-61
2022/07/30 04:15:36;;;;;;;;;;;;;;;15.38;74.84;101764.97;5025723;28;19920;-61
2022/07/30 04:18:03;;;;;;;;;;;;;;;15.37;75.39;101773.16;4997917;28;20008;-61
2022/07/30 04:20:40;;;;;;;;;;;;;;;15.36;74.78;101772.34;5017611;28;21292;-61
2022/07/30 04:23:06;;;;;;;;;;;;;;;15.35;74.94;101776.03;5024317;28;20000;-61
2022/07/30 04:25:31;;;;;;;;;;;;;;;15.36;74.75;101777.69;5027770;28;19925;-61
2022/07/30 04:27:57;;;;;;;;;;;;;;;15.37;74.43;101773.16;5027696;28;19928;-61
2022/07/30 04:30:22;;;;;;;;;;;;;;;15.41;74.90;101774.50;5029890;28;19921;-61
2022/07/30 04:32:48;;;;;;;;;;;;;;;15.41;74.92;101780.69;5020187;28;19956;-61
2022/07/30 04:35:13;;;;;;;;;;;;;;;15.39;74.76;101774.66;5029179;28;20029;-61
2022/07/30 04:37:38;;;;;;;;;;;;;;;15.38;74.95;101781.00;5031218;28;20012;-61
2022/07/30 04:40:03;;;;;;;;;;;;;;;15.37;75.76;101784.69;5012430;28;19929;-61
2022/07/30 04:42:29;;;;;;;;;;;;;;;15.37;76.03;101782.03;5025147;28;19932;-61
2022/07/30 04:44:55;;;;;;;;;;;;;;;15.38;75.31;101786.34;5027665;28;19925;-61
2022/07/30 04:47:20;;;;;;;;;;;;;;;15.40;75.20;101787.00;5031558;28;19971;-61
2022/07/30 04:49:46;;;;;;;;;;;;;;;15.38;75.49;101796.19;5030875;28;19925;-61
2022/07/30 04:52:12;;;;;;;;;;;;;;;15.37;75.14;101795.38;5026522;28;20503;-61
2022/07/30 04:55:03;;;;;;;;;;;;;;;15.37;75.23;101795.38;5016269;28;19921;-60
2022/07/30 04:57:30;;;;;;;;;;;;;;;15.39;75.45;101805.91;5020179;28;19968;-64
2022/07/30 04:59:55;;;;;;;;;;;;;;;15.37;75.50;101805.22;5027413;28;20316;-60
2022/07/30 05:02:23;;;;;;;;;;;;;;;15.36;75.79;101809.75;5026991;28;19928;-63
2022/07/30 05:04:49;;;;;;;;;;;;;;;15.38;75.51;101815.75;5028730;28;20323;-61
2022/07/30 05:07:16;;;;;;;;;;;;;;;15.41;75.34;101809.25;5030080;28;19921;-62
2022/07/30 05:09:42;;;;;;;;;;;;;;;15.44;75.18;101807.06;5031446;28;19921;-62
2022/07/30 05:12:07;;;;;;;;;;;;;;;15.44;75.44;101812.41;5009817;28;19975;-61
2022/07/30 05:14:32;;;;;;;;;;;;;;;15.46;75.72;101805.03;5024084;28;19928;-61
2022/07/30 05:16:57;;;;;;;;;;;;;;;15.46;76.31;101805.03;5024659;28;19922;-61
2022/07/30 05:19:23;;;;;;;;;;;;;;;15.45;79.08;101800.69;5022030;28;19948;-61
2022/07/30 05:21:48;;;;;;;;;;;;;;;15.48;76.44;101806.72;5030637;28;20317;-61
2022/07/30 05:24:13;;;;;;;;;;;;;;;15.48;75.86;101806.72;5029818;28;19992;-61
2022/07/30 05:26:39;;;;;;;;;;;;;;;15.49;77.92;101803.06;5031060;28;19924;-61
2022/07/30 05:29:04;;;;;;;;;;;;;;;15.45;78.54;101798.03;5026553;28;19925;-62
2022/07/30 05:31:29;;;;;;;;;;;;;;;15.45;77.04;101799.88;5029097;28;19946;-61
2022/07/30 05:33:55;;;;;;;;;;;;;;;15.44;79.03;101807.06;5031662;28;20008;-61
2022/07/30 05:36:20;;;;;;;;;;;;;;;15.43;76.53;101805.41;5018113;28;19928;-61
2022/07/30 05:38:45;;;;;;;;;;;;;;;15.49;76.62;101819.91;5031278;28;19928;-62
2022/07/30 05:41:11;;;;;;;;;;;;;;;15.54;76.74;101822.09;5026827;28;19925;-61
2022/07/30 05:43:36;;;;;;;;;;;;;;;15.59;76.66;101819.72;5025975;28;19929;-61
2022/07/30 05:46:01;;;;;;;;;;;;;;;15.66;76.47;101820.72;5029797;28;19925;-61
2022/07/30 05:48:26;;;;;;;;;;;;;;;15.72;76.48;101819.19;5029313;28;20339;-62
2022/07/30 05:50:52;;;;;;;;;;;;;;;15.79;76.47;101830.03;5022715;28;20288;-61
2022/07/30 05:53:17;;;;;;;;;;;;;;;15.82;77.79;101824.34;5023640;28;20281;-62
2022/07/30 05:55:42;;;;;;;;;;;;;;;15.88;76.65;101818.28;5029859;28;19921;-61
2022/07/30 05:58:07;;;;;;;;;;;;;;;15.95;76.58;101830.03;5031165;28;20320;-61
2022/07/30 06:00:34;;;;;;;;;;;;;;;16.04;76.88;101828.13;5029851;28;19928;-61
2022/07/30 06:02:59;;;;;;;;;;;;;;;16.10;76.65;101826.59;5017757;28;19964;-62
2022/07/30 06:05:24;;;;;;;;;;;;;;;16.19;76.93;101836.25;5028218;28;20353;-61
2022/07/30 06:07:50;;;;;;;;;;;;;;;16.25;80.14;101838.22;5033943;28;19922;-61
2022/07/30 06:10:15;;;;;;;;;;;;;;;16.27;77.22;101841.59;5033099;28;19931;-61
2022/07/30 06:12:41;;;;;;;;;;;;;;;16.35;77.21;101837.19;5017166;28;19928;-62
2022/07/30 06:15:07;;;;;;;;;;;;;;;16.41;78.49;101828.47;5026156;28;20472;-61
2022/07/30 06:17:32;;;;;;;;;;;;;;;16.46;78.12;101831.44;5027136;28;19928;-62
2022/07/30 06:20:00;;;;;;;;;;;;;;;16.53;77.07;101843.09;5031704;28;20011;-61
2022/07/30 06:22:25;;;;;;;;;;;;;;;16.63;77.06;101847.41;5022784;28;19922;-62
2022/07/30 06:24:50;;;;;;;;;;;;;;;16.74;77.18;101838.13;5028798;28;20357;-62
2022/07/30 06:27:16;;;;;;;;;;;;;;;16.84;76.71;101843.25;5022831;28;19928;-61
2022/07/30 06:29:41;;;;;;;;;;;;;;;16.91;76.90;101844.19;5020632;28;19995;-61
2022/07/30 06:32:06;;;;;;;;;;;;;;;16.95;77.22;101845.50;5023432;28;20392;-61
2022/07/30 06:34:31;;;;;;;;;;;;;;;16.97;77.25;101848.81;5025136;28;20619;-62
2022/07/30 06:36:56;;;;;;;;;;;;;;;16.98;76.77;101850.53;5034846;28;20331;-61
2022/07/30 06:39:22;;;;;;;;;;;;;;;17.07;77.22;101846.78;5029280;28;20016;-61
2022/07/30 06:41:47;;;;;;;;;;;;;;;17.08;77.16;101851.13;5033816;28;19924;-61
2022/07/30 06:44:12;;;;;;;;;;;;;;;17.06;77.04;101853.16;5030049;28;19976;-61
2022/07/30 06:46:37;;;;;;;;;;;;;;;17.25;77.23;101850.97;5031384;28;20296;-62
2022/07/30 06:49:03;;;;;;;;;;;;;;;17.17;77.29;101859.09;5021768;28;19998;-61
2022/07/30 06:51:28;;;;;;;;;;;;;;;17.23;77.01;101855.69;5030607;28;20491;-61
2022/07/30 06:53:53;;;;;;;;;;;;;;;17.22;77.12;101845.97;5033365;28;19920;-62
2022/07/30 06:56:18;;;;;;;;;;;;;;;17.30;77.61;101851.28;5029589;28;19921;-61
2022/07/30 06:58:43;;;;;;;;;;;;;;;17.41;76.51;101854.53;5022066;28;20004;-62
2022/07/30 07:01:08;;;;;;;;;;;;;;;17.52;76.59;101859.44;5034495;28;19917;-62
2022/07/30 07:03:34;;;;;;;;;;;;;;;17.56;76.81;101858.06;5034119;28;19920;-61
2022/07/30 07:05:59;;;;;;;;;;;;;;;17.53;76.41;101858.44;5031088;28;20416;-62
2022/07/30 07:08:25;;;;;;;;;;;;;;;17.61;76.42;101860.19;5003795;28;19924;-62
2022/07/30 07:10:50;;;;;;;;;;;;;;;17.71;76.08;101859.94;5019955;28;19926;-61
2022/07/30 07:13:15;;;;;;;;;;;;;;;17.53;75.95;101858.44;5028381;28;20008;-61
2022/07/30 07:15:40;;;;;;;;;;;;;;;17.55;75.92;101861.75;5029811;28;20372;-61
2022/07/30 07:18:06;;;;;;;;;;;;;;;17.64;75.64;101865.19;5030424;28;19928;-61
2022/07/30 07:20:34;;;;;;;;;;;;;;;17.75;75.34;101866.56;5030693;28;19928;-62
2022/07/30 07:23:00;;;;;;;;;;;;;;;17.88;75.31;101861.41;5033204;28;20327;-62
2022/07/30 07:25:25;;;;;;;;;;;;;;;17.88;74.75;101853.34;5032552;28;19957;-62
2022/07/30 07:27:51;;;;;;;;;;;;;;;17.90;74.70;101857.72;5033463;28;19948;-61
2022/07/30 07:30:16;;;;;;;;;;;;;;;17.98;74.55;101865.66;5026675;28;19921;-62
2022/07/30 07:32:41;;;;;;;;;;;;;;;18.00;74.72;101863.63;5014849;28;19925;-62
2022/07/30 07:35:07;;;;;;;;;;;;;;;18.03;74.48;101857.88;5027380;28;19940;-61
2022/07/30 07:37:32;;;;;;;;;;;;;;;18.00;74.16;101858.25;5023223;28;20008;-62
2022/07/30 07:39:57;;;;;;;;;;;;;;;17.94;73.94;101854.47;5025729;28;19949;-61
2022/07/30 07:42:22;;;;;;;;;;;;;;;17.98;73.68;101863.81;5027849;28;19918;-61
2022/07/30 07:44:47;;;;;;;;;;;;;;;18.21;73.03;101862.06;5020286;28;19928;-61
2022/07/30 07:47:12;;;;;;;;;;;;;;;18.28;72.32;101871.03;5031931;28;19928;-61
2022/07/30 07:49:38;;;;;;;;;;;;;;;18.34;72.04;101864.91;5032336;28;20023;-61
2022/07/30 07:52:03;;;;;;;;;;;;;;;18.48;71.85;101867.72;5031075;28;19928;-61
2022/07/30 07:54:28;;;;;;;;;;;;;;;18.54;71.11;101861.59;5009345;28;19978;-61
2022/07/30 07:56:56;;;;;;;;;;;;;;;18.58;70.03;101865.59;5031670;28;19921;-60
2022/07/30 07:59:22;;;;;;;;;;;;;;;18.67;70.97;101863.63;5024773;28;19921;-60
2022/07/30 08:01:47;;;;;;;;;;;;;;;18.76;70.82;101861.63;5021933;28;20422;-61
2022/07/30 08:04:12;;;;;;;;;;;;;;;18.86;69.53;101867.53;5026013;28;19921;-61
2022/07/30 08:06:37;;;;;;;;;;;;;;;18.99;68.65;101866.00;5024172;28;19921;-61
2022/07/30 08:09:02;;;;;;;;;;;;;;;18.92;69.36;101856.00;5012500;28;20384;-61
2022/07/30 08:11:28;;;;;;;;;;;;;;;18.92;68.72;101864.06;5030953;28;19929;-62
2022/07/30 08:13:53;;;;;;;;;;;;;;;19.01;69.29;101863.94;5032579;28;19917;-61
2022/07/30 08:16:19;;;;;;;;;;;;;;;19.11;68.67;101866.31;5025423;28;20381;-61
2022/07/30 08:18:44;;;;;;;;;;;;;;;19.18;68.11;101865.34;5023181;28;19935;-61
2022/07/30 08:21:09;;;;;;;;;;;;;;;19.21;68.16;101859.56;5032352;28;19925;-61
2022/07/30 08:23:34;;;;;;;;;;;;;;;19.24;68.33;101860.25;5032513;28;20648;-62
2022/07/30 08:25:59;;;;;;;;;;;;;;;19.30;68.14;101848.69;5024653;28;19933;-61
2022/07/30 08:28:25;;;;;;;;;;;;;;;19.40;66.46;101851.03;5032153;28;20434;-61
2022/07/30 08:30:50;;;;;;;;;;;;;;;19.35;66.79;101854.31;5032092;28;20001;-61
2022/07/30 08:33:15;;;;;;;;;;;;;;;19.46;65.44;101861.88;5030498;28;19921;-61
2022/07/30 08:35:41;;;;;;;;;;;;;;;19.39;65.91;101869.03;5025211;28;20074;-61
2022/07/30 08:38:06;;;;;;;;;;;;;;;19.46;66.17;101863.72;5031423;28;19921;-61
2022/07/30 08:40:32;;;;;;;;;;;;;;;19.57;65.98;101863.16;5031168;28;19921;-61
2022/07/30 08:42:57;;;;;;;;;;;;;;;19.60;65.55;101862.75;5031642;28;19921;-62
2022/07/30 08:45:23;;;;;;;;;;;;;;;19.71;65.61;101858.72;5031243;28;19944;-62
2022/07/30 08:47:48;;;;;;;;;;;;;;;19.77;65.54;101857.06;5031529;28;19925;-62
2022/07/30 08:50:14;;;;;;;;;;;;;;;19.83;64.55;101866.22;5031658;28;20276;-62
2022/07/30 08:52:41;;;;;;;;;;;;;;;19.92;64.74;101864.19;5031338;28;20339;-61
2022/07/30 08:55:06;;;;;;;;;;;;;;;19.98;64.45;101858.88;5027737;28;19971;-61
2022/07/30 08:57:34;;;;;;;;;;;;;;;20.09;61.69;101859.34;5029259;28;20327;-62
2022/07/30 09:00:00;;;;;;;;;;;;;;;20.21;64.36;101863.13;5024425;28;19925;-61
2022/07/30 09:02:25;;;;;;;;;;;;;;;20.36;63.36;101859.41;5023276;28;19928;-62
2022/07/30 09:04:51;;;;;;;;;;;;;;;20.47;63.01;101850.75;5019958;28;20012;-62
2022/07/30 09:07:16;;;;;;;;;;;;;;;20.52;62.77;101858.25;5030219;28;19999;-62
2022/07/30 09:09:41;;;;;;;;;;;;;;;20.59;62.13;101859.09;5026181;28;19967;-62
2022/07/30 09:12:25;;;;;;;;;;;;;;;20.66;61.42;101859.94;5030604;28;20281;-61
2022/07/30 09:15:00;;;;;;;;;;;;;;;20.67;61.46;101860.78;5024408;28;19964;-62
2022/07/30 09:17:26;;;;;;;;;;;;;;;20.73;59.58;101865.34;5012820;28;19918;-62
2022/07/30 09:20:01;;;;;;;;;;;;;;;20.76;60.96;101870.31;5028454;28;20417;-62
2022/07/30 09:22:40;;;;;;;;;;;;;;;20.85;60.65;101870.97;5032539;28;19979;-62
2022/07/30 09:25:05;;;;;;;;;;;;;;;21.00;59.80;101868.09;5023066;28;19921;-62
2022/07/30 09:27:47;;;;;;;;;;;;;;;21.08;58.99;101875.97;5031593;28;19929;-62
2022/07/30 09:30:12;;;;;;;;;;;;;;;21.14;59.37;101886.97;5036166;28;20451;-62
2022/07/30 09:32:48;;;;;;;;;;;;;;;21.26;59.26;101885.31;5035296;28;20008;-61
2022/07/30 09:35:14;;;;;;;;;;;;;;;21.45;57.34;101888.19;5025823;28;19928;-61
2022/07/30 09:37:39;;;;;;;;;;;;;;;21.37;57.72;101892.78;5036220;28;20283;-62
2022/07/30 09:40:12;;;;;;;;;;;;;;;21.40;56.73;101885.31;5036045;28;19921;-62
2022/07/30 09:42:38;;;;;;;;;;;;;;;21.32;57.75;101879.06;5021124;28;20008;-62
2022/07/30 09:45:06;;;;;;;;;;;;;;;21.50;56.08;101881.16;5030568;28;20024;-61
2022/07/30 09:47:36;;;;;;;;;;;;;;;21.48;55.20;101877.00;5029570;28;20587;-61
2022/07/30 09:50:05;;;;;;;;;;;;;;;21.42;56.70;101873.25;5036363;28;20398;-62
2022/07/30 09:52:31;;;;;;;;;;;;;;;21.52;55.28;101872.84;5036157;28;19924;-62
2022/07/30 09:54:56;;;;;;;;;;;;;;;21.62;54.39;101862.44;5035493;28;19917;-62
2022/07/30 09:57:21;;;;;;;;;;;;;;;21.73;54.82;101862.88;5035694;28;19925;-62
2022/07/30 09:59:46;;;;;;;;;;;;;;;21.67;55.90;101858.28;5035927;28;20097;-62
2022/07/30 10:02:12;;;;;;;;;;;;;;;21.77;55.61;101854.13;5035060;28;19955;-62
2022/07/30 10:04:37;;;;;;;;;;;;;;;21.88;54.91;101855.34;5035381;28;19917;-62
2022/07/30 10:07:03;;;;;;;;;;;;;;;22.09;52.86;101861.50;5034289;28;20418;-62
2022/07/30 10:09:32;;;;;;;;;;;;;;;21.94;55.07;101858.25;5035115;28;19921;-62
2022/07/30 10:11:59;;;;;;;;;;;;;;;22.10;54.18;101856.94;5028908;28;20532;-62
2022/07/30 10:14:27;;;;;;;;;;;;;;;22.05;54.98;101860.25;5035427;28;19924;-62
2022/07/30 10:16:52;;;;;;;;;;;;;;;22.08;55.21;101849.03;5030925;28;20059;-62
2022/07/30 10:19:18;;;;;;;;;;;;;;;22.31;53.55;101853.09;5035305;28;20008;-62
2022/07/30 10:21:44;;;;;;;;;;;;;;;22.38;53.99;101851.19;5035226;28;19943;-62
2022/07/30 10:24:09;;;;;;;;;;;;;;;22.48;53.82;101847.16;5035194;28;19971;-61
2022/07/30 10:26:34;;;;;;;;;;;;;;;22.50;53.99;101845.09;5021859;28;19986;-62
2022/07/30 10:29:00;;;;;;;;;;;;;;;22.52;53.53;101846.56;5035166;28;20008;-62
2022/07/30 10:31:26;;;;;;;;;;;;;;;22.54;51.03;101852.56;5035079;28;19918;-62
2022/07/30 10:33:51;;;;;;;;;;;;;;;22.53;52.13;101850.91;5035229;28;19944;-62
2022/07/30 10:36:17;;;;;;;;;;;;;;;22.54;52.35;101851.72;5016555;28;20311;-62
2022/07/30 10:38:43;;;;;;;;;;;;;;;22.63;52.46;101849.59;5034905;28;19917;-62
2022/07/30 10:41:14;;;;;;;;;;;;;;;22.67;52.14;101850.81;5031393;28;19924;-62
2022/07/30 10:43:58;;;;;;;;;;;;;;;22.88;51.38;101849.63;5015012;28;20064;-62
2022/07/30 10:46:42;;;;;;;;;;;;;;;23.03;51.58;101853.91;5014689;28;19971;-62
2022/07/30 10:49:10;;;;;;;;;;;;;;;23.21;50.69;101851.25;5015005;28;19917;-62
2022/07/30 10:51:43;;;;;;;;;;;;;;;23.27;50.85;101856.81;5015069;28;19922;-62
2022/07/30 10:54:28;;;;;;;;;;;;;;;23.24;51.42;101856.19;5020507;28;20520;-62
2022/07/30 10:57:13;;;;;;;;;;;;;;;23.37;50.63;101855.28;5034204;28;19944;-62
2022/07/30 10:59:51;;;;;;;;;;;;;;;23.45;49.62;101851.47;5032278;28;19918;-62
2022/07/30 11:02:17;;;;;;;;;;;;;;;23.48;49.94;101851.00;5034488;28;20364;-62
2022/07/30 11:04:45;;;;;;;;;;;;;;;23.59;49.76;101837.78;5034211;28;20360;-62
2022/07/30 11:07:22;;;;;;;;;;;;;;;23.75;49.25;101845.31;5034522;28;19927;-62
2022/07/30 11:09:51;;;;;;;;;;;;;;;23.71;49.28;101849.53;5034161;28;19937;-62
2022/07/30 11:12:36;;;;;;;;;;;;;;;23.72;49.69;101847.63;5022539;28;19921;-62
2022/07/30 11:15:01;;;;;;;;;;;;;;;23.77;48.83;101843.19;5023763;28;19921;-62
2022/07/30 11:17:46;;;;;;;;;;;;;;;23.86;49.37;101845.59;5026098;28;19922;-62
2022/07/30 11:20:12;;;;;;;;;;;;;;;23.96;48.70;101845.91;5021658;28;20008;-62
2022/07/30 11:22:39;;;;;;;;;;;;;;;23.99;48.68;101840.03;5033809;28;20462;-62
2022/07/30 11:25:08;;;;;;;;;;;;;;;24.00;48.22;101836.25;5024088;28;19971;-62
2022/07/30 11:27:34;;;;;;;;;;;;;;;24.05;48.43;101838.28;5033028;28;20411;-62
2022/07/30 11:29:59;;;;;;;;;;;;;;;24.10;48.86;101830.34;5024800;28;19926;-61
2022/07/30 11:32:29;;;;;;;;;;;;;;;24.18;48.95;101826.47;5023428;28;21926;-60
2022/07/30 11:35:09;;;;;;;;;;;;;;;24.30;48.72;101835.47;5022533;28;19975;-61
2022/07/30 11:37:54;;;;;;;;;;;;;;;24.45;48.28;101824.22;5028101;28;20000;-60
2022/07/30 11:40:19;;;;;;;;;;;;;;;24.55;48.15;101820.94;5028355;28;19945;-60
2022/07/30 11:42:46;;;;;;;;;;;;;;;24.64;48.56;101826.03;5022582;28;19921;-61
2022/07/30 11:45:16;;;;;;;;;;;;;;;24.81;47.35;101824.31;5026774;28;19983;-60
2022/07/30 11:47:42;;;;;;;;;;;;;;;24.84;46.67;101823.03;5025262;28;19947;-59
2022/07/30 11:50:18;;;;;;;;;;;;;;;24.79;44.40;101826.41;5023608;28;19922;-59
2022/07/30 11:52:49;;;;;;;;;;;;;;;24.73;45.92;101830.06;5021106;28;19921;-58
2022/07/30 11:55:25;;;;;;;;;;;;;;;24.72;45.82;101831.13;5023494;28;19921;-58
2022/07/30 11:57:51;;;;;;;;;;;;;;;24.75;47.03;101830.63;5020184;28;19929;-61
2022/07/30 12:00:17;;;;;;;;;;;;;;;24.87;45.11;101827.16;5025617;28;20896;-60
2022/07/30 12:02:42;;;;;;;;;;;;;;;24.86;45.46;101818.19;5024783;28;20339;-59
2022/07/30 12:05:07;;;;;;;;;;;;;;;24.99;46.60;101830.69;5030818;28;19960;-58
2022/07/30 12:07:34;;;;;;;;;;;;;;;25.21;46.08;101832.84;5024274;28;19925;-58
2022/07/30 12:10:12;;;;;;;;;;;;;;;25.11;45.88;101828.81;5028910;28;19925;-58
2022/07/30 12:12:37;;;;;;;;;;;;;;;24.98;45.97;101823.63;5019956;28;19921;-59
2022/07/30 12:15:03;;;;;;;;;;;;;;;24.93;45.65;101828.94;5029861;28;19928;-61
2022/07/30 12:17:41;;;;;;;;;;;;;;;24.96;45.70;101831.19;5025919;28;19925;-60
2022/07/30 12:20:14;;;;;;;;;;;;;;;24.90;45.96;101837.53;5025804;28;19948;-61
2022/07/30 12:22:39;;;;;;;;;;;;;;;24.88;46.07;101823.38;5024128;28;19921;-61
2022/07/30 12:25:07;;;;;;;;;;;;;;;24.79;46.30;101837.25;5004220;28;19928;-61
2022/07/30 12:27:33;;;;;;;;;;;;;;;24.77;46.13;101831.22;5026244;28;20482;-60
2022/07/30 12:29:58;;;;;;;;;;;;;;;24.72;46.12;101831.94;5023017;28;19922;-58
2022/07/30 12:32:24;;;;;;;;;;;;;;;24.70;45.94;101827.78;5025489;28;19921;-61
2022/07/30 12:34:55;;;;;;;;;;;;;;;24.55;45.47;101820.94;5028075;28;19925;-61
2022/07/30 12:37:20;;;;;;;;;;;;;;;24.50;46.57;101823.53;5025456;28;19925;-61